Time;durP1;ratioP1;P1;durP2;ratioP2;P2;SDS_P1;SDS_P2;PMS_P1;PMS_P2;Temp;Humidity;BMP_temperature;BMP_pressure;BME280_temperature;BME280_humidity;BME280_pressure;Samples;Min_cycle;Max_cycle;Signal;HPM_P1;HPM_P2
2021/12/26 00:02:19;;;;;;;4.05;2.88;;;;;;;-0.03;54.58;99595.00;5104633;28;20050;-64
2021/12/26 00:04:46;;;;;;;5.20;3.33;;;;;;;-0.11;55.18;99611.09;5094662;28;20036;-64
2021/12/26 00:07:13;;;;;;;5.53;3.03;;;;;;;-0.07;55.11;99599.34;5108053;28;20047;-64
2021/12/26 00:09:41;;;;;;;5.30;3.28;;;;;;;-0.09;55.12;99598.78;5105854;28;20048;-63
2021/12/26 00:12:11;;;;;;;4.38;3.10;;;;;;;-0.12;55.29;99598.53;5094463;28;20056;-64
2021/12/26 00:14:40;;;;;;;5.35;2.70;;;;;;;-0.13;54.71;99605.06;5101722;28;20488;-64
2021/12/26 00:17:09;;;;;;;6.47;3.00;;;;;;;-0.18;55.36;99597.66;5102728;28;20043;-64
2021/12/26 00:19:36;;;;;;;5.27;3.23;;;;;;;-0.20;54.58;99594.38;5103124;28;20047;-64
2021/12/26 00:22:05;;;;;;;4.50;2.83;;;;;;;-0.22;54.47;99580.13;5102804;28;20510;-64
2021/12/26 00:24:33;;;;;;;3.47;2.70;;;;;;;-0.15;54.69;99582.63;5107457;28;20043;-64
2021/12/26 00:27:00;;;;;;;3.47;3.10;;;;;;;-0.09;54.76;99582.38;5113393;28;20056;-64
2021/12/26 00:29:30;;;;;;;5.13;3.30;;;;;;;-0.04;54.63;99585.16;5112685;28;20121;-64
2021/12/26 00:31:58;;;;;;;4.60;3.10;;;;;;;0.04;55.15;99586.53;5103142;28;20048;-64
2021/12/26 00:34:28;;;;;;;5.53;3.30;;;;;;;0.06;54.92;99580.81;5102142;28;20420;-64
2021/12/26 00:36:55;;;;;;;4.80;3.13;;;;;;;0.14;55.41;99583.84;5110756;28;20058;-65
2021/12/26 00:39:23;;;;;;;4.10;2.90;;;;;;;0.19;55.10;99580.34;5102554;28;20067;-64
2021/12/26 00:41:52;;;;;;;4.82;2.80;;;;;;;0.27;54.81;99577.03;5111421;27;20047;-64
2021/12/26 00:44:20;;;;;;;5.93;3.77;;;;;;;0.30;54.92;99573.78;5097360;28;20397;-64
2021/12/26 00:46:50;;;;;;;4.70;3.20;;;;;;;0.30;55.63;99568.31;5100345;28;20433;-64
2021/12/26 00:49:17;;;;;;;5.38;3.38;;;;;;;0.32;55.12;99576.28;5101008;28;20110;-64
2021/12/26 00:51:46;;;;;;;5.55;3.42;;;;;;;0.35;55.09;99568.31;5096512;28;20044;-64
2021/12/26 00:54:13;;;;;;;6.05;3.80;;;;;;;0.41;55.12;99571.91;5108023;28;20051;-64
2021/12/26 00:56:41;;;;;;;5.72;3.28;;;;;;;0.44;54.92;99562.31;5117622;28;20058;-64
2021/12/26 00:59:09;;;;;;;5.45;2.97;;;;;;;0.47;54.30;99564.53;5117708;28;20055;-64
2021/12/26 01:01:37;;;;;;;5.95;3.25;;;;;;;0.39;54.23;99555.72;5108547;27;20044;-64
2021/12/26 01:04:05;;;;;;;4.82;3.17;;;;;;;0.40;54.49;99562.88;5106332;28;20054;-64
2021/12/26 01:06:33;;;;;;;4.95;3.42;;;;;;;0.49;54.40;99556.88;5114763;28;20050;-64
2021/12/26 01:09:02;;;;;;;5.03;2.85;;;;;;;0.54;54.41;99548.66;5112016;28;20054;-64
2021/12/26 01:11:36;;;;;;;5.70;2.92;;;;;;;0.51;55.05;99549.19;5110388;28;20067;-63
2021/12/26 01:14:10;;;;;;;7.15;3.75;;;;;;;0.52;54.95;99550.84;5110456;28;20055;-63
2021/12/26 01:16:40;;;;;;;4.03;2.80;;;;;;;0.58;55.04;99549.75;5104797;28;20051;-63
2021/12/26 01:19:13;;;;;;;4.30;2.95;;;;;;;0.59;54.66;99544.00;5104244;28;20443;-64
2021/12/26 01:21:42;;;;;;;6.00;3.70;;;;;;;0.59;54.45;99541.28;5101588;28;20052;-64
2021/12/26 01:24:15;;;;;;;4.90;3.38;;;;;;;0.61;55.18;99543.75;5104061;28;20052;-64
2021/12/26 01:26:43;;;;;;;4.63;3.35;;;;;;;0.63;54.80;99537.97;5107694;28;20054;-63
2021/12/26 01:29:10;;;;;;;5.60;3.20;;;;;;;0.62;54.77;99537.16;5115859;28;20055;-65
2021/12/26 01:31:38;;;;;;;5.22;3.42;;;;;;;0.61;55.42;99535.53;5109275;28;20047;-64
2021/12/26 01:34:08;;;;;;;5.35;2.75;;;;;;;0.64;55.16;99537.72;5108151;28;20595;-64
2021/12/26 01:36:36;;;;;;;4.38;3.17;;;;;;;0.64;55.43;99545.94;5108564;28;20047;-64
2021/12/26 01:39:08;;;;;;;5.25;3.33;;;;;;;0.60;56.14;99537.41;5115360;28;20507;-65
2021/12/26 01:41:43;;;;;;;5.68;3.67;;;;;;;0.64;56.41;99537.72;5111120;28;20051;-64
2021/12/26 01:44:12;;;;;;;5.72;3.22;;;;;;;0.60;56.39;99531.13;5109497;28;20063;-65
2021/12/26 01:46:41;;;;;;;4.82;3.10;;;;;;;0.63;56.40;99530.59;5098897;28;20048;-65
2021/12/26 01:49:12;;;;;;;5.78;3.53;;;;;;;0.61;56.85;99527.31;5103578;28;20056;-64
2021/12/26 01:51:41;;;;;;;7.20;3.97;;;;;;;0.59;56.40;99527.56;5096532;28;20070;-65
2021/12/26 01:54:11;;;;;;;6.47;4.22;;;;;;;0.66;56.23;99527.28;5109679;28;20056;-65
2021/12/26 01:56:42;;;;;;;6.15;3.88;;;;;;;0.66;56.43;99524.56;5102474;28;20044;-65
2021/12/26 01:59:12;;;;;;;5.75;3.85;;;;;;;0.66;56.30;99527.28;5095561;28;20485;-64
2021/12/26 02:01:39;;;;;;;12.60;6.60;;;;;;;0.68;56.54;99527.03;5100358;28;20052;-64
2021/12/26 02:04:07;;;;;;;10.40;5.55;;;;;;;0.65;56.51;99533.88;5102861;28;20048;-64
2021/12/26 02:06:35;;;;;;;9.80;5.50;;;;;;;0.60;56.87;99531.94;5109462;28;20067;-64
2021/12/26 02:09:03;;;;;;;9.63;5.65;;;;;;;0.64;56.90;99520.44;5115736;28;20051;-64
2021/12/26 02:11:30;;;;;;;8.20;4.28;;;;;;;0.58;56.97;99520.44;5102750;28;20428;-64
2021/12/26 02:13:59;;;;;;;8.18;4.70;;;;;;;0.54;57.11;99522.06;5095237;28;20052;-65
2021/12/26 02:16:26;;;;;;;10.15;5.65;;;;;;;0.52;57.53;99517.94;5102513;28;20044;-64
2021/12/26 02:18:54;;;;;;;12.10;6.88;;;;;;;0.53;57.77;99514.13;5109121;28;20044;-64
2021/12/26 02:21:37;;;;;;;11.23;5.55;;;;;;;0.53;57.84;99527.84;5105854;28;20051;-65
2021/12/26 02:24:13;;;;;;;9.07;4.95;;;;;;;0.55;57.57;99529.19;5100827;28;20059;-64
2021/12/26 02:29:25;;;;;;;5.72;3.80;;;;;;;0.53;57.73;99525.09;5096427;28;20070;-65
2021/12/26 02:31:53;;;;;;;5.85;3.90;;;;;;;0.52;57.58;99517.94;5105889;28;20058;-65
2021/12/26 02:34:21;;;;;;;5.70;3.70;;;;;;;0.60;58.24;99518.22;5108334;28;20052;-64
2021/12/26 02:36:50;;;;;;;4.60;3.10;;;;;;;0.67;58.06;99507.00;5109261;28;20047;-65
2021/12/26 02:39:17;;;;;;;4.30;3.25;;;;;;;0.72;58.13;99504.28;5097289;28;20047;-65
2021/12/26 02:41:45;;;;;;;6.18;4.07;;;;;;;0.72;57.69;99501.53;5101041;28;20063;-65
2021/12/26 02:44:12;;;;;;;6.55;3.72;;;;;;;0.80;58.04;99508.41;5114077;28;20051;-65
2021/12/26 02:46:40;;;;;;;6.20;3.40;;;;;;;0.73;58.22;99502.34;5105135;28;20052;-65
2021/12/26 02:49:08;;;;;;;4.28;3.33;;;;;;;0.86;58.13;99507.31;5107226;28;20058;-64
2021/12/26 02:51:35;;;;;;;6.28;3.97;;;;;;;0.92;58.77;99500.72;5103869;28;20043;-65
2021/12/26 02:54:05;;;;;;;5.28;3.28;;;;;;;0.98;58.39;99504.28;5112382;28;20055;-65
2021/12/26 02:56:34;;;;;;;5.55;3.83;;;;;;;1.07;58.25;99496.31;5114593;28;20052;-66
2021/12/26 02:59:01;;;;;;;4.80;3.73;;;;;;;1.14;58.41;99491.41;5099100;28;20063;-64
2021/12/26 03:01:30;;;;;;;5.60;3.95;;;;;;;1.13;57.72;99495.22;5104009;28;20058;-64
2021/12/26 03:03:59;;;;;;;5.10;3.67;;;;;;;1.14;57.79;99492.22;5106067;28;20596;-65
2021/12/26 03:06:32;;;;;;;4.30;3.47;;;;;;;1.16;57.62;99497.44;5108214;27;20047;-65
2021/12/26 03:09:00;;;;;;;4.65;3.58;;;;;;;1.26;57.40;99494.66;5101321;28;20497;-64
2021/12/26 03:11:29;;;;;;;4.75;3.50;;;;;;;1.32;57.28;99495.47;5105629;28;20052;-64
2021/12/26 03:13:56;;;;;;;3.97;3.28;;;;;;;1.31;57.00;99491.09;5101477;28;20440;-65
2021/12/26 03:16:24;;;;;;;3.95;2.97;;;;;;;1.34;56.40;99490.53;5104493;28;20047;-65
2021/12/26 03:18:56;;;;;;;4.63;3.53;;;;;;;1.29;57.06;99483.13;5097519;28;20052;-64
2021/12/26 03:21:24;;;;;;;4.35;3.13;;;;;;;1.25;56.93;99486.72;5108270;28;20052;-65
2021/12/26 03:23:51;;;;;;;5.78;3.40;;;;;;;1.31;56.33;99491.91;5092979;28;20056;-64
2021/12/26 03:26:19;;;;;;;5.82;3.28;;;;;;;1.35;56.06;99492.19;5098308;28;20055;-65
2021/12/26 03:28:47;;;;;;;5.25;3.40;;;;;;;1.36;56.33;99477.34;5107228;28;20392;-65
2021/12/26 03:31:15;;;;;;;4.38;3.08;;;;;;;1.37;56.09;99484.50;5092591;28;20056;-65
2021/12/26 03:33:42;;;;;;;6.18;3.20;;;;;;;1.35;55.23;99483.94;5092484;28;20052;-65
2021/12/26 03:36:10;;;;;;;4.57;3.15;;;;;;;1.38;55.67;99486.13;5091420;28;20059;-65
2021/12/26 03:38:37;;;;;;;5.25;3.20;;;;;;;1.33;55.62;99486.16;5091970;28;20048;-65
2021/12/26 03:41:05;;;;;;;3.97;3.20;;;;;;;1.41;55.80;99482.84;5092062;28;20420;-64
2021/12/26 03:43:32;;;;;;;5.32;2.92;;;;;;;1.43;54.66;99483.38;5092277;28;20055;-65
2021/12/26 03:46:01;;;;;;;5.80;3.30;;;;;;;1.46;55.21;99487.50;5091628;28;20075;-65
2021/12/26 03:48:29;;;;;;;4.50;2.92;;;;;;;1.41;55.28;99483.66;5097620;28;20058;-65
2021/12/26 03:50:57;;;;;;;4.10;3.28;;;;;;;1.47;54.97;99478.13;5102288;28;20055;-65
2021/12/26 03:53:25;;;;;;;4.93;2.90;;;;;;;1.46;54.94;99487.50;5101192;28;20056;-65
2021/12/26 03:55:53;;;;;;;4.40;3.20;;;;;;;1.51;55.08;99476.47;5103919;28;20096;-64
2021/12/26 03:58:21;;;;;;;4.97;3.40;;;;;;;1.51;54.82;99484.72;5102394;28;20412;-65
2021/12/26 04:00:50;;;;;;;5.30;3.30;;;;;;;1.53;55.11;99485.25;5102192;28;20062;-65
2021/12/26 04:03:19;;;;;;;4.47;2.80;;;;;;;1.46;55.35;99488.31;5099558;28;20063;-65
2021/12/26 04:05:46;;;;;;;4.63;2.58;;;;;;;1.48;55.54;99486.09;5101778;28;20066;-65
2021/12/26 04:08:14;;;;;;;3.78;2.80;;;;;;;1.44;54.63;99484.19;5110817;28;20488;-65
2021/12/26 04:10:41;;;;;;;4.95;3.42;;;;;;;1.42;54.58;99485.28;5100526;28;20488;-65
2021/12/26 04:13:09;;;;;;;5.60;3.40;;;;;;;1.50;54.82;99483.09;5097537;28;20066;-65
2021/12/26 04:15:36;;;;;;;5.10;2.67;;;;;;;1.51;54.59;99481.97;5110673;28;20051;-65
2021/12/26 04:18:04;;;;;;;5.78;3.55;;;;;;;1.53;54.92;99483.34;5099484;28;20498;-65
2021/12/26 04:20:34;;;;;;;3.75;3.03;;;;;;;1.58;54.84;99486.06;5092205;28;20052;-65
2021/12/26 04:23:01;;;;;;;3.78;3.03;;;;;;;1.61;54.83;99485.50;5093761;28;20051;-65
2021/12/26 04:25:28;;;;;;;4.30;3.00;;;;;;;1.61;54.00;99480.00;5094688;28;20496;-65
2021/12/26 04:27:57;;;;;;;4.22;3.10;;;;;;;1.66;54.90;99484.69;5105439;28;20064;-65
2021/12/26 04:30:25;;;;;;;3.63;2.70;;;;;;;1.67;54.99;99485.50;5100042;28;20047;-65
2021/12/26 04:32:53;;;;;;;4.45;2.97;;;;;;;1.72;54.44;99485.47;5105551;28;20048;-65
2021/12/26 04:35:21;;;;;;;4.50;3.10;;;;;;;1.74;53.77;99483.28;5104752;28;20122;-65
2021/12/26 04:37:52;;;;;;;4.90;3.38;;;;;;;1.78;54.25;99484.34;5091783;28;20044;-65
2021/12/26 04:40:19;;;;;;;4.70;3.25;;;;;;;1.81;54.40;99484.63;5091201;28;20059;-65
2021/12/26 04:42:47;;;;;;;3.97;3.08;;;;;;;1.84;54.21;99485.97;5092043;28;20040;-65
2021/12/26 04:45:15;;;;;;;3.55;2.83;;;;;;;1.85;54.71;99490.38;5091433;28;20500;-65
2021/12/26 04:47:44;;;;;;;6.20;3.50;;;;;;;1.92;55.03;99484.59;5096371;28;20051;-65
2021/12/26 04:50:14;;;;;;;4.00;3.17;;;;;;;1.91;54.53;99489.25;5099709;28;20059;-65
2021/12/26 04:52:43;;;;;;;4.10;3.13;;;;;;;1.91;54.32;99486.50;5100216;28;20488;-65
2021/12/26 04:55:13;;;;;;;3.85;3.00;;;;;;;1.85;54.17;99489.53;5098990;28;20047;-65
2021/12/26 04:57:41;;;;;;;4.65;3.15;;;;;;;1.89;54.89;99485.13;5099224;28;20051;-65
2021/12/26 05:00:11;;;;;;;5.22;3.17;;;;;;;1.88;54.29;99481.56;5100112;28;20052;-65
2021/12/26 05:02:39;;;;;;;4.13;3.13;;;;;;;1.94;54.99;99474.13;5100218;28;20055;-65
2021/12/26 05:05:09;;;;;;;4.50;2.80;;;;;;;1.94;53.79;99477.69;5099067;28;20052;-65
2021/12/26 05:07:37;;;;;;;3.83;2.95;;;;;;;1.94;54.06;99477.69;5102884;28;20074;-65
2021/12/26 05:10:06;;;;;;;5.10;3.00;;;;;;;1.92;53.42;99474.41;5111413;28;20052;-65
2021/12/26 05:12:36;;;;;;;4.25;2.92;;;;;;;1.91;54.40;99469.19;5099589;28;20050;-65
2021/12/26 05:15:03;;;;;;;22.92;10.70;;;;;;;1.91;53.50;99461.81;5105460;28;20438;-65
2021/12/26 05:17:31;;;;;;;14.82;7.28;;;;;;;1.94;54.35;99466.72;5105486;28;20404;-65
2021/12/26 05:19:59;;;;;;;35.45;16.67;;;;;;;1.96;54.05;99459.00;5098183;28;20059;-65
2021/12/26 05:22:26;;;;;;;15.85;8.68;;;;;;;2.00;54.58;99462.84;5105995;28;20052;-65
2021/12/26 05:24:53;;;;;;;25.00;13.68;;;;;;;2.02;55.18;99452.41;5112377;28;20133;-65
2021/12/26 05:27:21;;;;;;;13.18;7.15;;;;;;;2.08;54.82;99457.84;5099962;28;20066;-65
2021/12/26 05:29:50;;;;;;;6.57;3.05;;;;;;;2.12;54.23;99462.50;5105976;28;20048;-65
2021/12/26 05:32:17;;;;;;;4.78;2.80;;;;;;;2.08;53.69;99463.34;5105103;28;20055;-65
2021/12/26 05:34:45;;;;;;;4.10;3.00;;;;;;;2.12;54.02;99461.66;5098365;28;20051;-65
2021/12/26 05:37:12;;;;;;;6.22;3.75;;;;;;;2.18;54.37;99457.78;5111891;28;20196;-65
2021/12/26 05:39:40;;;;;;;15.93;9.75;;;;;;;2.18;54.54;99455.88;5109612;28;20047;-65
2021/12/26 05:42:09;;;;;;;11.50;6.60;;;;;;;2.17;54.51;99459.72;5100582;28;20048;-65
2021/12/26 05:44:37;;;;;;;4.53;3.60;;;;;;;2.21;54.43;99446.25;5103382;28;20066;-65
2021/12/26 05:47:06;;;;;;;22.38;11.02;;;;;;;2.24;54.62;99449.22;5101890;28;20048;-65
2021/12/26 05:49:33;;;;;;;14.40;8.93;;;;;;;2.08;54.39;99449.59;5108273;28;20062;-65
2021/12/26 05:52:01;;;;;;;6.63;3.97;;;;;;;2.21;54.50;99449.81;5111983;28;20063;-65
2021/12/26 05:54:28;;;;;;;21.65;10.45;;;;;;;2.18;54.43;99446.81;5107056;28;20052;-65
2021/12/26 05:56:55;;;;;;;22.05;11.93;;;;;;;2.19;55.06;99440.22;5103668;28;20055;-65
2021/12/26 05:59:23;;;;;;;13.73;7.35;;;;;;;2.16;54.33;99440.78;5096154;28;20392;-65
2021/12/26 06:01:50;;;;;;;13.43;7.03;;;;;;;2.13;54.29;99452.34;5107382;28;20502;-65
2021/12/26 06:04:19;;;;;;;6.47;4.40;;;;;;;2.12;55.28;99442.44;5096454;28;20052;-65
2021/12/26 06:06:47;;;;;;;26.77;12.27;;;;;;;2.18;54.51;99433.06;5108386;28;20059;-64
2021/12/26 06:09:14;;;;;;;8.07;4.20;;;;;;;2.17;54.69;99431.44;5105918;28;20419;-65
2021/12/26 06:11:41;;;;;;;6.15;3.90;;;;;;;2.12;54.66;99428.72;5109547;28;20051;-65
2021/12/26 06:14:09;;;;;;;7.05;4.05;;;;;;;1.99;55.00;99436.47;5106177;28;20052;-65
2021/12/26 06:16:36;;;;;;;4.70;3.10;;;;;;;2.09;55.12;99432.03;5101079;28;20048;-65
2021/12/26 06:19:03;;;;;;;5.18;3.55;;;;;;;1.99;54.90;99430.97;5109585;28;20420;-65
2021/12/26 06:21:32;;;;;;;4.40;3.38;;;;;;;2.11;54.89;99432.56;5103948;28;20044;-65
2021/12/26 06:24:00;;;;;;;6.65;3.20;;;;;;;2.18;54.73;99431.16;5103808;28;20137;-65
2021/12/26 06:26:29;;;;;;;6.15;3.80;;;;;;;2.13;55.10;99427.63;5104863;28;20043;-65
2021/12/26 06:28:57;;;;;;;5.45;3.13;;;;;;;2.01;54.51;99438.94;5112323;28;20078;-65
2021/12/26 06:31:24;;;;;;;6.40;3.33;;;;;;;1.99;55.42;99436.47;5102150;28;20397;-65
2021/12/26 06:33:52;;;;;;;9.60;4.82;;;;;;;2.07;55.13;99435.06;5097903;28;20063;-65
2021/12/26 06:36:19;;;;;;;7.07;4.07;;;;;;;2.16;55.79;99429.78;5099697;28;20048;-65
2021/12/26 06:38:48;;;;;;;4.97;3.20;;;;;;;2.18;55.17;99427.56;5106379;28;20043;-65
2021/12/26 06:41:16;;;;;;;6.15;3.33;;;;;;;2.20;54.91;99436.34;5107575;27;20047;-65
2021/12/26 06:43:44;;;;;;;4.63;3.25;;;;;;;2.19;55.07;99424.56;5107604;28;20047;-65
2021/12/26 06:46:11;;;;;;;14.93;8.80;;;;;;;2.14;55.67;99426.50;5109744;28;20056;-65
2021/12/26 06:48:41;;;;;;;11.52;5.95;;;;;;;2.15;55.33;99422.66;5101945;28;20411;-64
2021/12/26 06:51:09;;;;;;;7.15;4.05;;;;;;;2.25;55.34;99417.09;5111663;28;20063;-65
2021/12/26 06:53:36;;;;;;;5.60;3.80;;;;;;;2.28;55.48;99413.78;5107061;28;20472;-65
2021/12/26 06:56:06;;;;;;;3.88;2.85;;;;;;;2.19;56.04;99415.50;5101095;28;20051;-65
2021/12/26 06:58:34;;;;;;;4.47;3.40;;;;;;;2.23;55.84;99408.31;5105022;28;20047;-65
2021/12/26 07:01:01;;;;;;;4.18;3.25;;;;;;;2.25;55.37;99411.59;5110023;28;20048;-65
2021/12/26 07:03:28;;;;;;;4.35;3.35;;;;;;;2.23;55.25;99419.31;5102297;28;20043;-65
2021/12/26 07:05:56;;;;;;;5.15;3.40;;;;;;;2.28;55.23;99424.75;5104891;28;20051;-65
2021/12/26 07:08:23;;;;;;;4.95;3.53;;;;;;;2.29;55.29;99418.19;5109596;28;20044;-65
2021/12/26 07:10:51;;;;;;;5.47;3.67;;;;;;;2.30;55.50;99411.56;5098774;28;20040;-65
2021/12/26 07:13:20;;;;;;;4.15;3.05;;;;;;;2.22;54.67;99417.66;5102149;28;20058;-65
2021/12/26 07:15:47;;;;;;;4.88;2.97;;;;;;;2.40;55.23;99414.25;5094754;28;20484;-65
2021/12/26 07:18:15;;;;;;;5.38;3.38;;;;;;;2.41;55.45;99426.03;5111880;28;20047;-65
2021/12/26 07:20:42;;;;;;;6.00;3.10;;;;;;;2.42;55.59;99434.00;5110676;28;20056;-65
2021/12/26 07:23:10;;;;;;;4.55;3.22;;;;;;;2.43;54.91;99421.91;5112992;28;20058;-65
2021/12/26 07:25:37;;;;;;;3.92;3.00;;;;;;;2.44;54.88;99431.78;5096461;27;20052;-65
2021/12/26 07:28:05;;;;;;;6.13;3.58;;;;;;;2.47;54.91;99435.09;5107525;27;20044;-63
2021/12/26 07:30:34;;;;;;;4.10;3.20;;;;;;;2.47;54.61;99435.91;5099253;28;20052;-63
2021/12/26 07:33:02;;;;;;;27.00;13.52;;;;;;;2.48;55.39;99433.97;5092307;28;20052;-63
2021/12/26 07:35:29;;;;;;;64.47;35.78;;;;;;;2.47;55.48;99437.81;5092033;28;20048;-63
2021/12/26 07:37:57;;;;;;;13.52;8.55;;;;;;;2.51;55.79;99444.41;5092646;28;20044;-63
2021/12/26 07:40:24;;;;;;;16.65;10.77;;;;;;;2.45;55.81;99438.09;5092973;28;20059;-63
2021/12/26 07:42:52;;;;;;;19.13;10.48;;;;;;;2.54;55.38;99441.06;5092281;28;20052;-64
2021/12/26 07:45:19;;;;;;;11.73;6.57;;;;;;;2.55;55.51;99442.72;5092319;28;20052;-63
2021/12/26 07:47:48;;;;;;;34.75;23.77;;;;;;;2.54;55.93;99439.16;5092203;28;20044;-63
2021/12/26 07:50:16;;;;;;;9.95;7.18;;;;;;;2.54;55.45;99441.06;5092596;28;20417;-64
2021/12/26 07:52:45;;;;;;;9.68;7.22;;;;;;;2.45;56.06;99440.84;5092374;28;20044;-65
2021/12/26 07:55:13;;;;;;;9.88;7.18;;;;;;;2.54;55.90;99441.91;5092541;28;20047;-64
2021/12/26 07:57:44;;;;;;;4.22;3.03;;;;;;;2.57;55.90;99440.50;5091869;28;20079;-64
2021/12/26 08:00:12;;;;;;;4.18;3.50;;;;;;;2.55;56.04;99434.47;5091680;28;20047;-64
2021/12/26 08:02:41;;;;;;;5.00;3.45;;;;;;;2.57;55.25;99435.00;5091759;28;20047;-64
2021/12/26 08:05:10;;;;;;;4.15;3.47;;;;;;;2.63;55.87;99433.84;5091528;28;20052;-64
2021/12/26 08:07:38;;;;;;;5.68;3.08;;;;;;;2.65;55.79;99431.66;5098252;28;20050;-64
2021/12/26 08:10:06;;;;;;;6.15;4.40;;;;;;;2.70;56.15;99433.53;5106616;28;20058;-64
2021/12/26 08:12:33;;;;;;;6.47;4.68;;;;;;;2.71;56.21;99436.00;5101887;28;20048;-64
2021/12/26 08:15:02;;;;;;;6.03;5.10;;;;;;;2.71;55.53;99436.00;5102202;28;20435;-64
2021/12/26 08:17:29;;;;;;;7.43;6.03;;;;;;;2.78;55.38;99425.47;5102271;28;20063;-64
2021/12/26 08:19:57;;;;;;;7.40;5.50;;;;;;;2.72;55.60;99434.06;5103071;27;20052;-64
2021/12/26 08:22:26;;;;;;;5.57;4.25;;;;;;;2.72;56.15;99426.63;5098668;28;20040;-64
2021/12/26 08:24:53;;;;;;;8.52;5.60;;;;;;;2.68;56.29;99428.31;5107840;28;20055;-64
2021/12/26 08:27:21;;;;;;;8.68;5.40;;;;;;;2.79;56.51;99434.53;5102013;28;20427;-64
2021/12/26 08:29:48;;;;;;;7.32;4.75;;;;;;;2.87;56.19;99427.59;5096925;28;20048;-64
2021/12/26 08:32:17;;;;;;;11.52;6.75;;;;;;;2.68;56.39;99428.31;5101767;28;20055;-64
2021/12/26 08:34:45;;;;;;;13.23;8.43;;;;;;;2.74;56.44;99418.91;5100125;28;20526;-64
2021/12/26 08:37:14;;;;;;;7.28;5.13;;;;;;;2.78;56.30;99425.47;5091809;28;20424;-64
2021/12/26 08:39:47;;;;;;;11.77;7.28;;;;;;;2.83;56.21;99410.84;5095428;28;20388;-64
2021/12/26 08:42:15;;;;;;;6.88;5.65;;;;;;;2.93;56.41;99426.44;5107655;28;20043;-64
2021/12/26 08:44:43;;;;;;;6.05;4.63;;;;;;;2.65;56.78;99431.66;5106202;28;20059;-64
2021/12/26 08:47:11;;;;;;;6.18;5.18;;;;;;;2.89;56.81;99430.88;5111976;28;20445;-64
2021/12/26 08:49:40;;;;;;;7.65;4.80;;;;;;;3.02;56.31;99438.44;5112172;28;20483;-64
2021/12/26 08:52:09;;;;;;;8.18;6.43;;;;;;;3.03;56.62;99431.84;5111084;28;20055;-64
2021/12/26 08:54:37;;;;;;;10.95;7.45;;;;;;;3.12;56.30;99434.78;5104045;28;20062;-64
2021/12/26 08:57:08;;;;;;;8.40;6.68;;;;;;;3.20;56.19;99439.66;5107771;28;20514;-64
2021/12/26 08:59:35;;;;;;;11.30;7.75;;;;;;;3.21;56.74;99425.63;5101932;28;20048;-64
2021/12/26 09:02:07;;;;;;;9.30;7.22;;;;;;;3.35;56.64;99436.75;5093438;28;20040;-64
2021/12/26 09:04:35;;;;;;;7.38;5.82;;;;;;;3.34;56.52;99428.75;5100684;28;20062;-64
2021/12/26 09:07:04;;;;;;;7.70;5.50;;;;;;;3.42;56.14;99433.63;5102780;28;20052;-64
2021/12/26 09:09:31;;;;;;;7.13;6.38;;;;;;;3.50;56.41;99426.66;5110652;28;20500;-64
2021/12/26 09:11:59;;;;;;;12.23;8.18;;;;;;;3.45;56.38;99436.63;5097470;28;20054;-64
2021/12/26 09:14:29;;;;;;;12.98;7.28;;;;;;;3.59;56.54;99428.50;5104979;28;20493;-64
2021/12/26 09:16:57;;;;;;;;;;;;;;;3.64;55.93;99425.66;5098033;28;20048;-64
2021/12/26 09:19:27;;;;;;;8.25;6.82;;;;;;;3.76;56.15;99438.19;5095789;28;20253;-64
2021/12/26 09:21:55;;;;;;;6.45;5.15;;;;;;;3.73;55.88;99433.28;5097800;28;20059;-64
2021/12/26 09:24:22;;;;;;;7.68;6.05;;;;;;;3.79;55.68;99430.16;5100616;28;20060;-64
2021/12/26 09:26:50;;;;;;;10.02;9.02;;;;;;;3.83;56.41;99433.16;5098033;28;20044;-64
2021/12/26 09:29:17;;;;;;;8.60;7.78;;;;;;;3.92;56.14;99439.63;5094991;28;20051;-64
2021/12/26 09:31:46;;;;;;;8.32;6.00;;;;;;;3.98;56.04;99441.19;5104692;28;20054;-64
2021/12/26 09:34:14;;;;;;;9.00;7.60;;;;;;;4.05;56.13;99444.44;5113744;28;20089;-64
2021/12/26 09:36:41;;;;;;;7.78;6.82;;;;;;;4.04;55.97;99459.31;5102636;28;20044;-64
2021/12/26 09:39:09;;;;;;;8.50;5.93;;;;;;;4.00;56.15;99452.75;5108861;28;20051;-64
2021/12/26 09:41:38;;;;;;;9.27;7.50;;;;;;;4.07;55.86;99446.88;5101539;28;20055;-64
2021/12/26 09:44:05;;;;;;;10.27;6.53;;;;;;;4.11;55.86;99438.84;5102355;28;20062;-64
2021/12/26 09:50:22;;;;;;;7.65;5.70;;;;;;;4.52;55.30;99425.28;4599907;22;22650;-79
2021/12/26 09:52:53;;;;;;;8.05;6.40;;;;;;;4.68;54.61;99425.81;5036311;28;20060;-79
2021/12/26 09:55:21;;;;;;;11.00;8.38;;;;;;;4.86;54.47;99429.69;5035484;28;20054;-80
2021/12/26 09:57:48;;;;;;;12.25;6.32;;;;;;;5.08;53.65;99423.47;5034527;28;20056;-80
2021/12/26 10:00:21;;;;;;;12.85;8.80;;;;;;;5.28;53.58;99422.31;5033096;28;20049;-82
2021/12/26 10:03:09;;;;;;;11.50;8.60;;;;;;;5.61;52.54;99420.28;5035393;28;20049;-81
2021/12/26 10:06:03;;;;;;;11.45;8.05;;;;;;;5.90;52.00;99413.63;5036750;28;20387;-81
2021/12/26 10:08:34;;;;;;;9.38;7.55;;;;;;;6.55;50.32;99414.38;5039130;28;20057;-80
2021/12/26 10:11:10;;;;;;;8.77;6.43;;;;;;;6.88;49.67;99412.97;5038825;28;20706;-81
2021/12/26 10:13:43;;;;;;;9.55;6.53;;;;;;;7.13;49.15;99410.69;5040603;28;20478;-82
2021/12/26 10:16:11;;;;;;;6.93;5.88;;;;;;;7.26;48.42;99412.53;5033177;28;20399;-83
2021/12/26 10:18:41;;;;;;;15.85;9.05;;;;;;;7.17;48.80;99408.09;5028142;28;20068;-79
2021/12/26 10:21:39;;;;;;;21.98;12.70;;;;;;;7.25;48.59;99404.56;5036757;28;20054;-80
2021/12/26 10:24:17;;;;;;;9.43;6.70;;;;;;;7.32;48.38;99408.50;5037304;28;20049;-80
2021/12/26 10:26:47;;;;;;;6.68;5.90;;;;;;;7.23;48.25;99404.88;5036889;28;20052;-79
2021/12/26 10:29:18;;;;;;;;;;;;;;;7.07;48.99;99395.34;5036822;28;20060;-81
2021/12/26 10:31:51;;;;;;;7.25;6.53;;;;;;;7.15;49.12;99389.03;5035880;28;19932;-80
2021/12/26 10:34:22;;;;;;;7.53;5.72;;;;;;;7.02;48.97;99385.22;5037511;28;20064;-80
2021/12/26 10:36:53;;;;;;;7.85;5.95;;;;;;;6.90;49.61;99377.50;5040611;28;20049;-80
2021/12/26 10:39:24;;;;;;;7.32;5.80;;;;;;;6.91;49.08;99378.31;5039405;28;20422;-81
2021/12/26 10:41:55;;;;;;;11.07;6.97;;;;;;;6.80;49.29;99374.97;5036115;28;20477;-80
2021/12/26 10:44:30;;;;;;;6.45;5.05;;;;;;;6.80;50.14;99377.75;5038746;28;20058;-79
2021/12/26 10:46:59;;;;;;;5.30;4.50;;;;;;;6.65;49.71;99375.38;5038554;28;20053;-79
2021/12/26 10:49:30;;;;;;;7.90;5.90;;;;;;;6.61;50.10;99369.66;5037597;28;20057;-81
2021/12/26 10:52:00;;;;;;;6.75;5.53;;;;;;;6.62;49.99;99378.78;5066193;28;20049;-82
2021/12/26 10:54:33;;;;;;;5.97;4.97;;;;;;;6.63;50.00;99380.41;5077666;28;20083;-81
2021/12/26 10:57:12;;;;;;;6.88;5.20;;;;;;;6.71;50.78;99377.69;5076396;28;20067;-79
2021/12/26 10:59:41;;;;;;;8.52;6.32;;;;;;;6.81;50.51;99373.06;5075553;28;20504;-80
2021/12/26 11:02:09;;;;;;;5.90;4.90;;;;;;;6.77;50.76;99370.09;5075383;28;20052;-79
2021/12/26 11:04:38;;;;;;;8.50;6.10;;;;;;;6.80;50.70;99371.41;5075138;28;20490;-80
2021/12/26 11:07:10;;;;;;;7.47;5.90;;;;;;;6.80;50.12;99371.41;5075805;28;20059;-79
2021/12/26 11:09:38;;;;;;;7.03;5.55;;;;;;;6.63;51.20;99370.16;5073998;28;20056;-79
2021/12/26 11:12:08;;;;;;;8.45;6.20;;;;;;;6.46;51.36;99365.31;5075581;28;20052;-79
2021/12/26 11:14:59;;;;;;;5.78;4.22;;;;;;;6.54;51.55;99362.94;5072429;28;20049;-79
2021/12/26 11:17:30;;;;;;;6.40;5.53;;;;;;;6.52;51.94;99371.56;5070709;28;20044;-79
2021/12/26 11:19:59;;;;;;;7.25;5.30;;;;;;;6.52;51.95;99367.97;5075049;28;20405;-79
2021/12/26 11:22:28;;;;;;;6.78;5.03;;;;;;;6.59;52.30;99365.56;5074921;28;20049;-77
2021/12/26 11:24:57;;;;;;;6.20;5.30;;;;;;;6.59;52.29;99360.84;5073962;28;20059;-77
2021/12/26 11:27:24;;;;;;;7.13;5.60;;;;;;;6.70;52.08;99362.25;5074383;28;20056;-79
2021/12/26 11:29:53;;;;;;;7.85;6.15;;;;;;;6.65;52.12;99364.31;5076032;28;20051;-79
2021/12/26 11:32:21;;;;;;;7.22;5.95;;;;;;;6.58;52.55;99359.22;5074822;28;20044;-79
2021/12/26 11:34:50;;;;;;;6.88;5.38;;;;;;;6.64;52.57;99355.19;5072237;28;20520;-80
2021/12/26 11:37:18;;;;;;;8.25;7.03;;;;;;;6.76;52.54;99364.88;5072899;28;20049;-81
2021/12/26 11:39:47;;;;;;;8.40;6.60;;;;;;;6.73;52.40;99359.97;5073910;28;20056;-81
2021/12/26 11:42:36;;;;;;;7.33;5.47;;;;;;;6.74;52.45;99356.91;5074718;28;20056;-79
2021/12/26 11:45:12;;;;;;;7.10;6.30;;;;;;;6.71;52.16;99368.59;5075011;28;20475;-80
2021/12/26 11:48:21;;;;;;;7.80;6.70;;;;;;;6.70;52.85;99351.19;5074341;28;20091;-81
2021/12/26 11:51:03;;;;;;;7.55;6.15;;;;;;;6.79;52.36;99351.22;5057028;28;20058;-81
2021/12/26 11:53:48;;;;;;;8.88;6.68;;;;;;;6.70;53.23;99358.66;5075060;28;20055;-81
2021/12/26 11:56:32;;;;;;;9.18;6.75;;;;;;;6.77;52.77;99356.25;5074797;28;20053;-81